createdAt,value
2017-05-19T00:00:46.655Z,19.15
2017-05-19T00:01:46.545Z,19.01
2017-05-19T00:02:46.666Z,19.11
2017-05-19T00:03:46.651Z,19
2017-05-19T00:04:46.352Z,19.04
2017-05-19T00:05:46.641Z,19.09
2017-05-19T00:06:46.642Z,19.08
2017-05-19T00:07:46.640Z,19.04
2017-05-19T00:08:46.639Z,18.98
2017-05-19T00:09:46.640Z,18.92
2017-05-19T00:10:46.327Z,18.92
2017-05-19T00:11:46.632Z,18.98
2017-05-19T00:12:46.633Z,18.92
2017-05-19T00:13:46.631Z,18.88
2017-05-19T00:14:46.628Z,18.85
2017-05-19T00:15:46.319Z,18.83
2017-05-19T00:16:46.621Z,18.81
2017-05-19T00:17:46.619Z,18.78
2017-05-19T00:18:46.624Z,18.83
2017-05-19T00:19:46.617Z,18.81
2017-05-19T00:20:46.614Z,18.66
2017-05-19T00:21:46.612Z,18.74
2017-05-19T00:22:46.617Z,18.71
2017-05-19T00:23:46.615Z,18.79
2017-05-19T00:24:46.606Z,18.76
2017-05-19T00:25:46.606Z,18.68
2017-05-19T00:26:46.601Z,18.68
2017-05-19T00:27:46.299Z,18.68
2017-05-19T00:28:46.599Z,18.67
2017-05-19T00:29:46.600Z,18.64
2017-05-19T00:30:46.594Z,18.61
2017-05-19T00:31:46.593Z,18.57
2017-05-19T00:32:46.598Z,18.63
2017-05-19T00:33:46.284Z,18.52
2017-05-19T00:34:46.592Z,18.57
2017-05-19T00:35:46.584Z,18.52
2017-05-19T00:36:45.972Z,18.49
2017-05-19T00:37:46.580Z,18.39
2017-05-19T00:38:46.580Z,18.41
2017-05-19T00:39:46.580Z,18.31
2017-05-19T00:40:46.576Z,18.3
2017-05-19T00:41:46.580Z,18.36
2017-05-19T00:42:46.577Z,18.36
2017-05-19T00:43:46.571Z,18.23
2017-05-19T00:44:46.572Z,18.18
2017-05-19T00:45:46.564Z,18.23
2017-05-19T00:46:46.259Z,18.21
2017-05-19T00:47:46.623Z,18.26
2017-05-19T00:48:46.563Z,18.15
2017-05-19T00:49:46.559Z,18.18
2017-05-19T00:50:46.554Z,18.06
2017-05-19T00:51:46.247Z,18.12
2017-05-19T00:52:46.555Z,18.11
2017-05-19T00:53:46.554Z,18.18
2017-05-19T00:54:46.557Z,18.15
2017-05-19T00:55:46.545Z,18.05
2017-05-19T00:56:46.237Z,18.06
2017-05-19T00:57:46.552Z,18.09
2017-05-19T00:58:46.234Z,18.06
2017-05-19T00:59:45.926Z,18.05
2017-05-19T01:00:46.538Z,18.11
2017-05-19T01:01:46.533Z,18.11
2017-05-19T01:02:46.534Z,18.08
2017-05-19T01:03:46.533Z,18.09
2017-05-19T01:04:46.531Z,18.11
2017-05-19T01:05:46.525Z,18.11
2017-05-19T01:06:46.524Z,18.02
2017-05-19T01:07:46.534Z,18.11
2017-05-19T01:08:46.520Z,18.03
2017-05-19T01:09:46.221Z,17.94
2017-05-19T01:10:46.213Z,17.95
2017-05-19T01:11:46.523Z,17.97
2017-05-19T01:12:46.521Z,17.95
2017-05-19T01:13:46.517Z,17.91
2017-05-19T01:14:46.205Z,17.87
2017-05-19T01:15:46.506Z,17.79
2017-05-19T01:16:46.504Z,17.73
2017-05-19T01:17:46.502Z,17.76
2017-05-19T01:18:46.497Z,17.73
2017-05-19T01:19:46.191Z,17.71
2017-05-19T01:20:46.497Z,17.72
2017-05-19T01:21:46.491Z,17.66
2017-05-19T01:22:46.490Z,17.72
2017-05-19T01:23:46.493Z,17.68
2017-05-19T01:24:46.490Z,17.72
2017-05-19T01:25:46.177Z,17.66
2017-05-19T01:26:46.177Z,17.72
2017-05-19T01:27:46.179Z,17.72
2017-05-19T01:28:46.177Z,17.72
2017-05-19T01:29:46.533Z,17.68
2017-05-19T01:30:46.476Z,17.72
2017-05-19T01:31:46.469Z,17.79
2017-05-19T01:32:46.469Z,17.8
2017-05-19T01:33:46.469Z,17.78
2017-05-19T01:34:46.470Z,17.79
2017-05-19T01:35:46.467Z,17.82
2017-05-19T01:36:46.460Z,17.79
2017-05-19T01:37:46.459Z,17.84
2017-05-19T01:38:46.468Z,17.78
2017-05-19T01:39:46.149Z,17.82
2017-05-19T01:40:46.180Z,17.73
2017-05-19T01:41:46.451Z,17.8
2017-05-19T01:42:46.449Z,17.82
2017-05-19T01:43:46.446Z,17.75
2017-05-19T01:44:46.444Z,17.73
2017-05-19T01:45:46.140Z,17.69
2017-05-19T01:46:46.136Z,17.71
2017-05-19T01:47:46.133Z,17.72
2017-05-19T01:48:46.435Z,17.71
2017-05-19T01:49:46.436Z,17.71
2017-05-19T01:50:46.430Z,17.63
2017-05-19T01:51:46.429Z,17.6
2017-05-19T01:52:46.429Z,17.63
2017-05-19T01:53:46.424Z,17.49
2017-05-19T01:54:46.430Z,17.6
2017-05-19T01:55:46.424Z,17.54
2017-05-19T01:56:46.417Z,17.44
2017-05-19T01:57:46.418Z,17.53
2017-05-19T01:58:46.414Z,17.54
2017-05-19T01:59:46.113Z,17.47
2017-05-19T02:00:46.104Z,17.5
2017-05-19T02:01:46.102Z,17.39
2017-05-19T02:02:46.406Z,17.52
2017-05-19T02:03:46.407Z,17.63
2017-05-19T02:04:46.401Z,17.5
2017-05-19T02:05:46.093Z,17.59
2017-05-19T02:06:46.395Z,17.63
2017-05-19T02:07:46.394Z,17.52
2017-05-19T02:08:46.397Z,17.53
2017-05-19T02:09:46.396Z,17.6
2017-05-19T02:10:46.390Z,17.54
2017-05-19T02:11:46.386Z,17.53
2017-05-19T02:12:46.382Z,17.47
2017-05-19T02:13:46.073Z,17.54
2017-05-19T02:14:46.379Z,17.5
2017-05-19T02:15:46.073Z,17.5
2017-05-19T02:16:46.067Z,17.49
2017-05-19T02:17:46.376Z,17.52
2017-05-19T02:18:46.372Z,17.42
2017-05-19T02:19:46.373Z,17.47
2017-05-19T02:20:46.368Z,17.44
2017-05-19T02:21:46.423Z,17.44
2017-05-19T02:22:46.363Z,17.39
2017-05-19T02:23:46.361Z,17.44
2017-05-19T02:24:46.360Z,17.37
2017-05-19T02:25:46.355Z,17.37
2017-05-19T02:26:46.048Z,17.31
2017-05-19T02:27:46.353Z,17.24
2017-05-19T02:28:46.349Z,17.27
2017-05-19T02:29:46.040Z,17.23
2017-05-19T02:30:46.041Z,17.16
2017-05-19T02:31:46.341Z,17.1
2017-05-19T02:32:46.340Z,17.14
2017-05-19T02:33:46.033Z,17.13
2017-05-19T02:34:46.339Z,17.12
2017-05-19T02:35:46.337Z,17.01
2017-05-19T02:36:46.329Z,17.02
2017-05-19T02:37:46.348Z,16.98
2017-05-19T02:38:46.324Z,16.98
2017-05-19T02:39:46.323Z,16.87
2017-05-19T02:40:46.321Z,16.86
2017-05-19T02:41:46.322Z,16.87
2017-05-19T02:42:46.316Z,16.89
2017-05-19T02:43:46.317Z,16.82
2017-05-19T02:44:46.008Z,16.82
2017-05-19T02:45:46.007Z,16.8
2017-05-19T02:46:46.369Z,16.84
2017-05-19T02:47:46.307Z,16.77
2017-05-19T02:48:46.312Z,16.82
2017-05-19T02:49:46.303Z,16.8
2017-05-19T02:50:45.992Z,16.8
2017-05-19T02:51:46.303Z,16.76
2017-05-19T02:52:45.991Z,16.76
2017-05-19T02:53:45.986Z,16.65
2017-05-19T02:54:46.293Z,16.76
2017-05-19T02:55:46.289Z,16.61
2017-05-19T02:56:46.293Z,16.62
2017-05-19T02:57:46.286Z,16.64
2017-05-19T02:58:46.282Z,16.58
2017-05-19T02:59:46.280Z,16.59
2017-05-19T03:00:46.276Z,16.65
2017-05-19T03:01:46.272Z,16.64
2017-05-19T03:02:46.278Z,16.61
2017-05-19T03:03:46.275Z,16.73
2017-05-19T03:04:45.963Z,16.64
2017-05-19T03:05:46.272Z,16.66
2017-05-19T03:06:45.652Z,16.69
2017-05-19T03:07:46.266Z,16.73
2017-05-19T03:08:46.262Z,16.64
2017-05-19T03:09:46.261Z,16.64
2017-05-19T03:10:46.251Z,16.69
2017-05-19T03:11:46.249Z,16.69
2017-05-19T03:12:46.249Z,16.73
2017-05-19T03:13:46.248Z,16.82
2017-05-19T03:14:46.250Z,16.79
2017-05-19T03:15:45.935Z,16.74
2017-05-19T03:16:46.293Z,16.77
2017-05-19T03:17:46.244Z,16.74
2017-05-19T03:18:46.237Z,16.76
2017-05-19T03:19:45.928Z,16.72
2017-05-19T03:20:46.235Z,16.79
2017-05-19T03:21:46.230Z,16.76
2017-05-19T03:22:45.619Z,16.87
2017-05-19T03:23:45.918Z,16.74
2017-05-19T03:24:46.226Z,16.76
2017-05-19T03:25:45.611Z,16.83
2017-05-19T03:26:46.218Z,16.77
2017-05-19T03:27:46.218Z,16.84
2017-05-19T03:28:46.214Z,16.89
2017-05-19T03:29:46.210Z,16.84
2017-05-19T03:30:46.267Z,16.84
2017-05-19T03:31:46.209Z,16.89
2017-05-19T03:32:46.206Z,16.79
2017-05-19T03:33:46.200Z,16.77
2017-05-19T03:34:46.203Z,16.72
2017-05-19T03:35:45.895Z,16.8
2017-05-19T03:36:46.194Z,16.74
2017-05-19T03:37:46.198Z,16.8
2017-05-19T03:38:45.885Z,16.74
2017-05-19T03:39:46.188Z,16.72
2017-05-19T03:40:46.185Z,16.77
2017-05-19T03:41:45.875Z,16.79
2017-05-19T03:42:45.875Z,16.82
2017-05-19T03:43:46.179Z,16.82
2017-05-19T03:44:46.178Z,16.82
2017-05-19T03:45:46.175Z,16.8
2017-05-19T03:46:46.172Z,16.74
2017-05-19T03:47:45.865Z,16.82
2017-05-19T03:48:45.865Z,16.76
2017-05-19T03:49:46.164Z,16.8
2017-05-19T03:50:46.161Z,16.73
2017-05-19T03:51:46.160Z,16.76
2017-05-19T03:52:46.159Z,16.79
2017-05-19T03:53:45.847Z,16.86
2017-05-19T03:54:45.850Z,16.89
2017-05-19T03:55:46.148Z,16.87
2017-05-19T03:56:46.148Z,16.89
2017-05-19T03:57:46.150Z,16.92
2017-05-19T03:58:46.144Z,17.02
2017-05-19T03:59:46.141Z,16.99
2017-05-19T04:00:45.833Z,16.98
2017-05-19T04:01:45.829Z,17.02
2017-05-19T04:02:45.835Z,17.05
2017-05-19T04:03:45.825Z,17.13
2017-05-19T04:04:46.127Z,17.13
2017-05-19T04:05:46.128Z,17.12
2017-05-19T04:06:46.122Z,17.24
2017-05-19T04:07:46.122Z,17.22
2017-05-19T04:08:46.122Z,17.27
2017-05-19T04:09:46.115Z,17.23
2017-05-19T04:10:45.813Z,17.24
2017-05-19T04:11:46.115Z,17.31
2017-05-19T04:12:46.113Z,17.28
2017-05-19T04:13:45.812Z,17.32
2017-05-19T04:14:46.106Z,17.27
2017-05-19T04:15:46.101Z,17.28
2017-05-19T04:16:46.100Z,17.27
2017-05-19T04:17:46.099Z,17.24
2017-05-19T04:18:45.790Z,17.32
2017-05-19T04:19:46.094Z,17.3
2017-05-19T04:20:46.089Z,17.23
2017-05-19T04:21:45.782Z,17.23
2017-05-19T04:22:46.093Z,17.28
2017-05-19T04:23:45.780Z,17.3
2017-05-19T04:24:46.082Z,17.31
2017-05-19T04:25:46.079Z,17.3
2017-05-19T04:26:46.076Z,17.27
2017-05-19T04:27:45.772Z,17.37
2017-05-19T04:28:46.075Z,17.37
2017-05-19T04:29:46.068Z,17.41
2017-05-19T04:30:46.111Z,17.44
2017-05-19T04:31:46.062Z,17.44
2017-05-19T04:32:45.762Z,17.54
2017-05-19T04:33:45.757Z,17.63
2017-05-19T04:34:46.058Z,17.72
2017-05-19T04:35:46.052Z,17.6
2017-05-19T04:36:46.052Z,17.6
2017-05-19T04:37:46.053Z,17.66
2017-05-19T04:38:46.055Z,17.75
2017-05-19T04:39:45.741Z,17.66
2017-05-19T04:40:46.046Z,17.71
2017-05-19T04:41:45.738Z,17.75
2017-05-19T04:42:46.041Z,17.73
2017-05-19T04:43:46.041Z,17.65
2017-05-19T04:44:46.038Z,17.69
2017-05-19T04:45:45.731Z,17.68
2017-05-19T04:46:46.036Z,17.71
2017-05-19T04:47:46.030Z,17.69
2017-05-19T04:48:46.029Z,17.71
2017-05-19T04:49:46.024Z,17.68
2017-05-19T04:50:46.023Z,17.73
2017-05-19T04:51:46.018Z,17.73
2017-05-19T04:52:46.021Z,17.71
2017-05-19T04:53:45.724Z,17.79
2017-05-19T04:54:45.706Z,17.87
2017-05-19T04:55:46.006Z,17.78
2017-05-19T04:56:46.005Z,17.87
2017-05-19T04:57:46.008Z,17.86
2017-05-19T04:58:46.004Z,17.94
2017-05-19T04:59:45.694Z,17.93
2017-05-19T05:00:45.389Z,17.94
2017-05-19T05:01:45.694Z,17.93
2017-05-19T05:02:46.001Z,18.02
2017-05-19T05:03:45.991Z,17.93
2017-05-19T05:04:45.987Z,17.9
2017-05-19T05:05:45.995Z,17.97
2017-05-19T05:06:45.988Z,17.97
2017-05-19T05:07:45.987Z,18
2017-05-19T05:08:45.676Z,18.08
2017-05-19T05:09:45.978Z,18.11
2017-05-19T05:10:45.976Z,18.11
2017-05-19T05:11:45.972Z,18.12
2017-05-19T05:12:45.972Z,18.16
2017-05-19T05:13:45.665Z,18.16
2017-05-19T05:14:45.969Z,18.16
2017-05-19T05:15:45.662Z,18.15
2017-05-19T05:16:45.960Z,18.16
2017-05-19T05:17:45.661Z,18.11
2017-05-19T05:18:45.653Z,18.15
2017-05-19T05:19:45.956Z,18.15
2017-05-19T05:20:45.955Z,18.13
2017-05-19T05:21:45.954Z,18.08
2017-05-19T05:22:45.949Z,18.19
2017-05-19T05:23:45.638Z,18.21
2017-05-19T05:24:45.943Z,18.16
2017-05-19T05:25:45.940Z,18.26
2017-05-19T05:26:45.942Z,18.24
2017-05-19T05:27:45.629Z,18.21
2017-05-19T05:28:45.944Z,18.34
2017-05-19T05:29:45.932Z,18.3
2017-05-19T05:30:45.623Z,18.33
2017-05-19T05:31:45.929Z,18.41
2017-05-19T05:32:45.925Z,18.27
2017-05-19T05:33:45.935Z,18.34
2017-05-19T05:34:45.624Z,18.28
2017-05-19T05:35:45.920Z,18.39
2017-05-19T05:36:45.915Z,18.34
2017-05-19T05:37:45.916Z,18.31
2017-05-19T05:38:45.913Z,18.36
2017-05-19T05:39:45.912Z,18.36
2017-05-19T05:40:45.907Z,18.3
2017-05-19T05:41:45.900Z,18.3
2017-05-19T05:42:45.903Z,18.36
2017-05-19T05:43:45.899Z,18.24
2017-05-19T05:44:45.590Z,18.3
2017-05-19T05:45:45.588Z,18.36
2017-05-19T05:46:45.892Z,18.28
2017-05-19T05:47:45.892Z,18.41
2017-05-19T05:48:45.584Z,18.3
2017-05-19T05:49:45.885Z,18.36
2017-05-19T05:50:45.577Z,18.36
2017-05-19T05:51:45.573Z,18.41
2017-05-19T05:52:45.879Z,18.43
2017-05-19T05:53:45.579Z,18.45
2017-05-19T05:54:45.565Z,18.42
2017-05-19T05:55:45.572Z,18.43
2017-05-19T05:56:45.617Z,18.45
2017-05-19T05:57:45.865Z,18.43
2017-05-19T05:58:45.876Z,18.41
2017-05-19T05:59:45.255Z,18.39
2017-05-19T06:00:45.555Z,18.46
2017-05-19T06:01:45.860Z,18.52
2017-05-19T06:02:45.857Z,18.58
2017-05-19T06:03:45.852Z,18.45
2017-05-19T06:04:45.855Z,18.51
2017-05-19T06:05:45.848Z,18.64
2017-05-19T06:06:45.845Z,18.66
2017-05-19T06:07:45.541Z,18.76
2017-05-19T06:08:45.534Z,18.74
2017-05-19T06:09:45.534Z,18.71
2017-05-19T06:10:45.837Z,18.85
2017-05-19T06:11:45.531Z,18.81
2017-05-19T06:12:45.528Z,18.82
2017-05-19T06:13:45.833Z,18.73
2017-05-19T06:14:45.828Z,18.83
2017-05-19T06:15:45.826Z,18.86
2017-05-19T06:16:45.823Z,18.89
2017-05-19T06:17:45.822Z,18.91
2017-05-19T06:18:45.820Z,18.88
2017-05-19T06:19:45.817Z,18.91
2017-05-19T06:20:45.815Z,18.92
2017-05-19T06:21:45.810Z,18.96
2017-05-19T06:22:45.808Z,19.01
2017-05-19T06:23:45.808Z,19
2017-05-19T06:24:45.805Z,19.08
2017-05-19T06:25:45.805Z,19.17
2017-05-19T06:26:45.803Z,19.19
2017-05-19T06:27:45.797Z,19.19
2017-05-19T06:28:45.800Z,19.26
2017-05-19T06:29:45.492Z,19.34
2017-05-19T06:30:45.796Z,19.26
2017-05-19T06:31:45.485Z,19.27
2017-05-19T06:32:45.794Z,19.37
2017-05-19T06:33:45.785Z,19.41
2017-05-19T06:34:45.787Z,19.42
2017-05-19T06:35:45.477Z,19.47
2017-05-19T06:36:45.478Z,19.47
2017-05-19T06:37:45.779Z,19.47
2017-05-19T06:38:45.780Z,19.45
2017-05-19T06:39:45.780Z,19.45
2017-05-19T06:40:45.771Z,19.39
2017-05-19T06:41:45.771Z,19.42
2017-05-19T06:42:45.765Z,19.48
2017-05-19T06:43:45.770Z,19.47
2017-05-19T06:44:45.760Z,19.48
2017-05-19T06:45:45.760Z,19.49
2017-05-19T06:46:45.453Z,19.53
2017-05-19T06:47:45.758Z,19.62
2017-05-19T06:48:45.755Z,19.6
2017-05-19T06:49:45.452Z,19.57
2017-05-19T06:50:45.748Z,19.63
2017-05-19T06:51:45.748Z,19.6
2017-05-19T06:52:45.746Z,19.55
2017-05-19T06:53:45.755Z,19.56
2017-05-19T06:54:45.745Z,19.64
2017-05-19T06:55:45.739Z,19.66
2017-05-19T06:56:45.739Z,19.72
2017-05-19T06:57:45.429Z,19.67
2017-05-19T06:58:45.736Z,19.66
2017-05-19T06:59:45.737Z,19.75
2017-05-19T07:00:45.730Z,19.71
2017-05-19T07:01:45.422Z,19.67
2017-05-19T07:02:45.724Z,19.66
2017-05-19T07:03:45.724Z,19.57
2017-05-19T07:04:45.723Z,19.64
2017-05-19T07:05:45.724Z,19.52
2017-05-19T07:06:45.714Z,19.52
2017-05-19T07:07:45.721Z,19.48
2017-05-19T07:08:45.713Z,19.41
2017-05-19T07:09:45.711Z,19.42
2017-05-19T07:10:45.709Z,19.39
2017-05-19T07:11:45.703Z,19.41
2017-05-19T07:12:45.399Z,19.38
2017-05-19T07:13:45.702Z,19.34
2017-05-19T07:14:45.696Z,19.3
2017-05-19T07:15:45.698Z,19.26
2017-05-19T07:16:45.392Z,19.24
2017-05-19T07:17:45.690Z,19.26
2017-05-19T07:18:45.696Z,19.27
2017-05-19T07:19:45.381Z,19.39
2017-05-19T07:20:45.684Z,19.39
2017-05-19T07:21:45.685Z,19.34
2017-05-19T07:22:45.376Z,19.37
2017-05-19T07:23:45.377Z,19.32
2017-05-19T07:24:45.676Z,19.38
2017-05-19T07:25:45.370Z,19.29
2017-05-19T07:26:45.672Z,19.35
2017-05-19T07:27:45.671Z,19.27
2017-05-19T07:28:45.671Z,19.24
2017-05-19T07:29:45.358Z,19.3
2017-05-19T07:30:45.359Z,19.24
2017-05-19T07:31:45.659Z,19.26
2017-05-19T07:32:45.352Z,19.2
2017-05-19T07:33:45.661Z,19.24
2017-05-19T07:34:45.656Z,19.34
2017-05-19T07:35:45.343Z,19.34
2017-05-19T07:36:45.650Z,19.48
2017-05-19T07:37:45.647Z,19.48
2017-05-19T07:38:45.646Z,19.56
2017-05-19T07:39:45.340Z,19.63
2017-05-19T07:40:45.642Z,19.62
2017-05-19T07:41:45.641Z,19.66
2017-05-19T07:42:45.640Z,19.82
2017-05-19T07:43:45.643Z,19.72
2017-05-19T07:44:45.633Z,19.92
2017-05-19T07:45:45.324Z,19.87
2017-05-19T07:46:45.632Z,19.9
2017-05-19T07:47:45.628Z,19.9
2017-05-19T07:48:45.638Z,19.89
2017-05-19T07:49:45.624Z,19.99
2017-05-19T07:50:45.623Z,20.03
2017-05-19T07:51:45.621Z,20.11
2017-05-19T07:52:45.621Z,20.03
2017-05-19T07:53:45.619Z,20.15
2017-05-19T07:54:45.614Z,20.1
2017-05-19T07:55:45.612Z,20.1
2017-05-19T07:56:45.610Z,20.08
2017-05-19T07:57:45.608Z,20.03
2017-05-19T07:58:45.297Z,20.03
2017-05-19T07:59:45.610Z,20.02
2017-05-19T08:00:45.605Z,20
2017-05-19T08:01:45.601Z,20.1
2017-05-19T08:02:45.295Z,20.08
2017-05-19T08:03:45.595Z,20.1
2017-05-19T08:04:45.288Z,20.08
2017-05-19T08:05:45.592Z,19.94
2017-05-19T08:06:45.605Z,19.94
2017-05-19T08:07:45.583Z,19.92
2017-05-19T08:08:45.588Z,19.79
2017-05-19T08:09:45.330Z,19.75
2017-05-19T08:10:45.584Z,19.71
2017-05-19T08:11:45.575Z,19.7
2017-05-19T08:12:45.575Z,19.67
2017-05-19T08:13:45.583Z,19.6
2017-05-19T08:14:45.265Z,19.52
2017-05-19T08:15:45.267Z,19.42
2017-05-19T08:16:45.259Z,19.34
2017-05-19T08:17:45.564Z,19.3
2017-05-19T08:18:45.564Z,19.23
2017-05-19T08:19:45.565Z,19.23
2017-05-19T08:20:45.560Z,19.2
2017-05-19T08:21:45.557Z,19.22
2017-05-19T08:22:45.556Z,19.26
2017-05-19T08:23:45.248Z,19.27
2017-05-19T08:24:45.247Z,19.26
2017-05-19T08:25:45.556Z,19.24
2017-05-19T08:26:45.550Z,19.26
2017-05-19T08:27:45.546Z,19.17
2017-05-19T08:28:45.552Z,19.16
2017-05-19T08:29:45.237Z,19.16
2017-05-19T08:30:45.238Z,19.19
2017-05-19T08:31:45.539Z,19.19
2017-05-19T08:32:45.536Z,19.19
2017-05-19T08:33:45.534Z,19.17
2017-05-19T08:34:45.533Z,19.08
2017-05-19T08:35:45.535Z,19.08
2017-05-19T08:36:45.222Z,19.15
2017-05-19T08:37:45.222Z,19.12
2017-05-19T08:38:45.520Z,19.16
2017-05-19T08:39:45.521Z,19.12
2017-05-19T08:40:45.516Z,19.16
2017-05-19T08:41:45.207Z,19.19
2017-05-19T08:42:45.514Z,19.15
2017-05-19T08:43:45.511Z,19.22
2017-05-19T08:44:45.573Z,19.27
2017-05-19T08:45:45.508Z,19.24
2017-05-19T08:46:45.507Z,19.2
2017-05-19T08:47:45.499Z,19.16
2017-05-19T08:48:45.193Z,19.2
2017-05-19T08:49:45.495Z,19.15
2017-05-19T08:50:45.187Z,19.24
2017-05-19T08:51:45.492Z,19.35
2017-05-19T08:52:45.490Z,19.44
2017-05-19T08:53:45.185Z,19.41
2017-05-19T08:54:45.179Z,19.41
2017-05-19T08:55:45.178Z,19.42
2017-05-19T08:56:45.176Z,19.52
2017-05-19T08:57:45.183Z,19.37
2017-05-19T08:58:45.173Z,19.49
2017-05-19T08:59:45.169Z,19.48
2017-05-19T09:00:45.170Z,19.52
2017-05-19T09:01:45.472Z,19.41
2017-05-19T09:02:45.163Z,19.52
2017-05-19T09:03:45.502Z,19.53
2017-05-19T09:04:45.157Z,19.47
2017-05-19T09:05:45.155Z,19.41
2017-05-19T09:06:45.155Z,19.39
2017-05-19T09:07:45.457Z,19.34
2017-05-19T09:08:45.456Z,19.35
2017-05-19T09:09:45.455Z,19.37
2017-05-19T09:10:45.144Z,19.26
2017-05-19T09:11:45.448Z,19.17
2017-05-19T09:12:45.445Z,19.15
2017-05-19T09:13:45.137Z,19.04
2017-05-19T09:14:45.445Z,19.08
2017-05-19T09:15:45.131Z,19.04
2017-05-19T09:16:45.191Z,19.07
2017-05-19T09:17:45.434Z,19
2017-05-19T09:18:45.128Z,19.04
2017-05-19T09:19:45.130Z,18.83
2017-05-19T09:20:45.123Z,18.81
2017-05-19T09:21:45.425Z,18.82
2017-05-19T09:22:45.430Z,18.67
2017-05-19T09:23:45.118Z,18.68
2017-05-19T09:24:45.419Z,18.63
2017-05-19T09:25:45.116Z,18.6
2017-05-19T09:26:45.417Z,18.63
2017-05-19T09:27:45.113Z,18.57
2017-05-19T09:28:45.111Z,18.57
2017-05-19T09:29:45.410Z,18.48
2017-05-19T09:30:45.410Z,18.61
2017-05-19T09:31:45.404Z,18.51
2017-05-19T09:32:45.401Z,18.57
2017-05-19T09:33:45.408Z,18.58
2017-05-19T09:34:45.401Z,18.49
2017-05-19T09:35:45.396Z,18.52
2017-05-19T09:36:45.094Z,18.42
2017-05-19T09:37:45.395Z,18.42
2017-05-19T09:38:45.388Z,18.33
2017-05-19T09:39:45.390Z,18.34
2017-05-19T09:40:45.386Z,18.27
2017-05-19T09:41:45.079Z,18.24
2017-05-19T09:42:45.381Z,18.12
2017-05-19T09:43:45.081Z,18.12
2017-05-19T09:44:45.381Z,18.15
2017-05-19T09:45:45.376Z,18.12
2017-05-19T09:46:44.760Z,17.98
2017-05-19T09:47:45.368Z,17.98
2017-05-19T09:48:45.368Z,17.94
2017-05-19T09:49:45.365Z,18.03
2017-05-19T09:50:45.365Z,17.93
2017-05-19T09:51:45.363Z,17.93
2017-05-19T09:52:45.058Z,17.91
2017-05-19T09:53:45.051Z,17.9
2017-05-19T09:54:45.355Z,17.78
2017-05-19T09:55:45.353Z,17.8
2017-05-19T09:56:45.355Z,17.78
2017-05-19T09:57:44.737Z,17.71
2017-05-19T09:58:45.353Z,17.69
2017-05-19T09:59:45.346Z,17.72
2017-05-19T10:00:45.343Z,17.53
2017-05-19T10:01:45.343Z,17.56
2017-05-19T10:02:45.031Z,17.65
2017-05-19T10:03:45.341Z,17.47
2017-05-19T10:04:44.719Z,17.47
2017-05-19T10:05:45.333Z,17.47
2017-05-19T10:06:45.329Z,17.34
2017-05-19T10:07:45.022Z,17.32
2017-05-19T10:08:45.327Z,17.23
2017-05-19T10:09:45.015Z,17.28
2017-05-19T10:10:45.323Z,17.27
2017-05-19T10:11:45.012Z,17.22
2017-05-19T10:12:45.010Z,17.24
2017-05-19T10:13:45.316Z,17.2
2017-05-19T10:14:45.009Z,17.31
2017-05-19T10:15:45.003Z,17.3
2017-05-19T10:16:45.308Z,17.28
2017-05-19T10:17:44.999Z,17.3
2017-05-19T10:18:45.308Z,17.28
2017-05-19T10:19:44.995Z,17.24
2017-05-19T10:20:45.300Z,17.19
2017-05-19T10:21:44.989Z,17.2
2017-05-19T10:22:45.295Z,17.13
2017-05-19T10:23:45.289Z,17.12
2017-05-19T10:24:45.293Z,17.17
2017-05-19T10:25:45.289Z,17.12
2017-05-19T10:26:44.980Z,17.12
2017-05-19T10:27:45.285Z,16.86
2017-05-19T10:28:44.987Z,16.94
2017-05-19T10:29:45.277Z,16.86
2017-05-19T10:30:44.968Z,16.91
2017-05-19T10:31:44.665Z,16.95
2017-05-19T10:32:45.286Z,16.94
2017-05-19T10:33:45.278Z,16.95
2017-05-19T10:34:45.268Z,16.83
2017-05-19T10:35:45.265Z,16.82
2017-05-19T10:36:45.263Z,16.72
2017-05-19T10:37:45.259Z,16.74
2017-05-19T10:38:45.258Z,16.74
2017-05-19T10:39:45.255Z,16.66
2017-05-19T10:40:45.252Z,16.5
2017-05-19T10:41:45.252Z,16.54
2017-05-19T10:42:44.946Z,16.5
2017-05-19T10:43:45.251Z,16.55
2017-05-19T10:44:45.242Z,16.61
2017-05-19T10:45:45.245Z,16.61
2017-05-19T10:46:44.938Z,16.57
2017-05-19T10:47:45.235Z,16.44
2017-05-19T10:48:45.235Z,16.51
2017-05-19T10:49:45.235Z,16.44
2017-05-19T10:50:45.230Z,16.43
2017-05-19T10:51:45.228Z,16.44
2017-05-19T10:52:45.231Z,16.44
2017-05-19T10:53:45.226Z,16.4
2017-05-19T10:54:45.221Z,16.49
2017-05-19T10:55:45.223Z,16.41
2017-05-19T10:56:45.219Z,16.44
2017-05-19T10:57:45.213Z,16.47
2017-05-19T10:58:45.215Z,16.5
2017-05-19T10:59:45.211Z,16.49
2017-05-19T11:00:45.205Z,16.49
2017-05-19T11:01:45.206Z,16.43
2017-05-19T11:02:44.898Z,16.54
2017-05-19T11:03:44.896Z,16.47
2017-05-19T11:04:45.197Z,16.37
2017-05-19T11:05:45.260Z,16.29
2017-05-19T11:06:45.195Z,16.24
2017-05-19T11:07:44.884Z,16.22
2017-05-19T11:08:45.192Z,16.25
2017-05-19T11:09:45.189Z,16.25
2017-05-19T11:10:45.182Z,16.13
2017-05-19T11:11:45.176Z,16.24
2017-05-19T11:12:45.241Z,16.13
2017-05-19T11:13:45.176Z,16.08
2017-05-19T11:14:45.172Z,16.13
2017-05-19T11:15:45.173Z,16.1
2017-05-19T11:16:44.860Z,16.02
2017-05-19T11:17:45.164Z,16.06
2017-05-19T11:18:45.162Z,16
2017-05-19T11:19:45.159Z,16.02
2017-05-19T11:20:45.157Z,15.88
2017-05-19T11:21:45.153Z,15.96
2017-05-19T11:22:44.845Z,15.87
2017-05-19T11:23:45.155Z,15.83
2017-05-19T11:24:45.151Z,15.76
2017-05-19T11:25:45.144Z,15.83
2017-05-19T11:26:45.144Z,15.76
2017-05-19T11:27:45.140Z,15.75
2017-05-19T11:28:44.834Z,15.76
2017-05-19T11:29:44.824Z,15.81
2017-05-19T11:30:45.137Z,15.88
2017-05-19T11:31:44.520Z,15.76
2017-05-19T11:32:44.822Z,15.85
2017-05-19T11:33:45.132Z,15.84
2017-05-19T11:34:44.819Z,15.85
2017-05-19T11:35:44.815Z,15.75
2017-05-19T11:36:44.878Z,15.84
2017-05-19T11:37:44.941Z,15.76
2017-05-19T11:38:44.921Z,15.76
2017-05-19T11:39:45.272Z,15.8
2017-05-19T11:40:45.196Z,15.76
2017-05-19T11:41:44.863Z,15.7
2017-05-19T11:42:45.188Z,15.6
2017-05-19T11:43:44.930Z,15.7
2017-05-19T11:44:44.973Z,15.78
2017-05-19T11:45:45.218Z,15.69
2017-05-19T11:46:45.218Z,15.69
2017-05-19T11:47:44.881Z,15.72
2017-05-19T11:48:44.940Z,15.59
2017-05-19T11:49:44.940Z,15.45
2017-05-19T11:50:44.943Z,15.41
2017-05-19T11:51:44.894Z,15.41
2017-05-19T11:52:44.877Z,15.33
2017-05-19T11:53:44.588Z,15.25
2017-05-19T11:54:44.569Z,15.23
2017-05-19T11:55:45.124Z,15.17
2017-05-19T11:56:44.583Z,15.12
2017-05-19T11:57:44.899Z,15.14
2017-05-19T11:58:44.899Z,15.04
2017-05-19T11:59:44.919Z,15.04
2017-05-19T12:00:44.529Z,15.14
2017-05-19T12:01:44.867Z,14.96
2017-05-19T12:02:45.205Z,14.93
2017-05-19T12:03:45.195Z,14.85
2017-05-19T12:04:44.860Z,14.79
2017-05-19T12:05:44.508Z,14.77
2017-05-19T12:06:44.527Z,14.82
2017-05-19T12:07:45.141Z,14.77
2017-05-19T12:08:44.556Z,14.7
2017-05-19T12:09:45.031Z,14.67
2017-05-19T12:10:44.418Z,14.67
2017-05-19T12:11:44.733Z,14.68
2017-05-19T12:12:45.034Z,14.51
2017-05-19T12:13:44.719Z,14.59
2017-05-19T12:14:45.019Z,14.49
2017-05-19T12:15:44.711Z,14.48
2017-05-19T12:16:44.706Z,14.53
2017-05-19T12:17:44.711Z,14.48
2017-05-19T12:18:44.706Z,14.43
2017-05-19T12:19:44.394Z,14.49
2017-05-19T12:20:45.001Z,14.44
2017-05-19T12:21:44.694Z,14.4
2017-05-19T12:22:44.692Z,14.45
2017-05-19T12:23:44.996Z,14.44
2017-05-19T12:24:44.685Z,14.52
2017-05-19T12:25:44.375Z,14.53
2017-05-19T12:26:44.985Z,14.55
2017-05-19T12:27:44.374Z,14.58
2017-05-19T12:28:44.676Z,14.7
2017-05-19T12:29:44.671Z,14.68
2017-05-19T12:30:44.665Z,14.81
2017-05-19T12:31:44.669Z,14.79
2017-05-19T12:32:44.667Z,14.79
2017-05-19T12:33:44.660Z,14.77
2017-05-19T12:34:44.657Z,14.82
2017-05-19T12:35:44.656Z,14.79
2017-05-19T12:36:44.654Z,14.79
2017-05-19T12:37:44.649Z,14.82
2017-05-19T12:38:44.664Z,14.82
2017-05-19T12:39:44.652Z,14.79
2017-05-19T12:40:44.335Z,14.9
2017-05-19T12:41:44.950Z,14.85
2017-05-19T12:42:44.943Z,14.86
2017-05-19T12:43:44.644Z,14.92
2017-05-19T12:44:44.641Z,15.04
2017-05-19T12:45:44.933Z,14.99
2017-05-19T12:46:44.626Z,15.05
2017-05-19T12:47:44.943Z,15.11
2017-05-19T12:48:44.928Z,15.22
2017-05-19T12:49:44.926Z,15.25
2017-05-19T12:50:44.923Z,15.27
2017-05-19T12:51:44.617Z,15.29
2017-05-19T12:52:44.918Z,15.19
2017-05-19T12:53:44.919Z,15.22
2017-05-19T12:54:44.914Z,15.14
2017-05-19T12:55:44.606Z,15.11